createdAt,value
2023-05-18T00:01:10.768Z,1.20
2023-05-18T00:03:38.208Z,1.23
2023-05-18T00:06:07.148Z,0.90
2023-05-18T00:08:34.309Z,1.23
2023-05-18T00:11:01.716Z,1.30
2023-05-18T00:13:28.317Z,0.90
2023-05-18T00:15:54.937Z,1.20
2023-05-18T00:18:23.960Z,1.10
2023-05-18T00:21:02.606Z,1.27
2023-05-18T00:23:29.978Z,1.17
2023-05-18T00:25:57.558Z,1.05
2023-05-18T00:28:24.480Z,1.23
2023-05-18T00:30:51.034Z,1.77
2023-05-18T00:33:17.586Z,1.10
2023-05-18T00:35:44.303Z,1.35
2023-05-18T00:38:12.187Z,1.42
2023-05-18T00:40:42.400Z,1.20
2023-05-18T00:43:11.325Z,0.98
2023-05-18T00:45:37.944Z,1.20
2023-05-18T00:48:04.878Z,1.00
2023-05-18T00:50:31.869Z,1.05
2023-05-18T00:52:58.881Z,1.30
2023-05-18T00:55:26.449Z,1.30
2023-05-18T00:57:56.354Z,1.02
2023-05-18T01:00:26.159Z,1.30
2023-05-18T01:02:53.194Z,1.05
2023-05-18T01:05:22.167Z,1.15
2023-05-18T01:07:50.565Z,1.20
2023-05-18T01:10:18.180Z,1.30
2023-05-18T01:12:53.787Z,1.20
2023-05-18T01:15:23.813Z,1.40
2023-05-18T01:18:10.444Z,1.33
2023-05-18T01:20:39.136Z,1.55
2023-05-18T01:23:15.025Z,1.48
2023-05-18T01:25:54.299Z,1.30
2023-05-18T01:28:23.088Z,1.00
2023-05-18T01:30:50.041Z,1.55
2023-05-18T01:33:16.929Z,1.42
2023-05-18T01:35:48.412Z,1.35
2023-05-18T01:38:19.808Z,1.30
2023-05-18T01:40:52.613Z,1.20
2023-05-18T01:43:20.894Z,1.35
2023-05-18T01:45:49.008Z,1.40
2023-05-18T01:48:18.519Z,1.45
2023-05-18T01:51:01.208Z,1.01
2023-05-18T01:53:39.279Z,1.13
2023-05-18T01:56:08.770Z,1.52
2023-05-18T01:58:36.891Z,1.40
2023-05-18T02:01:04.229Z,1.20
2023-05-18T02:03:34.059Z,1.63
2023-05-18T02:06:00.699Z,1.10
2023-05-18T02:08:27.333Z,1.30
2023-05-18T02:10:54.511Z,1.60
2023-05-18T02:13:21.063Z,1.25
2023-05-18T02:15:47.626Z,1.38
2023-05-18T02:18:14.174Z,1.60
2023-05-18T02:20:40.764Z,1.42
2023-05-18T02:23:07.323Z,1.50
2023-05-18T02:25:34.049Z,1.60
2023-05-18T02:28:01.026Z,1.40
2023-05-18T02:30:27.575Z,1.65
2023-05-18T02:32:54.275Z,1.33
2023-05-18T02:35:21.211Z,1.40
2023-05-18T02:37:49.976Z,1.65
2023-05-18T02:40:17.054Z,1.45
2023-05-18T02:42:43.708Z,1.35
2023-05-18T02:45:11.493Z,2.17
2023-05-18T02:47:39.443Z,1.65
2023-05-18T02:50:06.582Z,1.60
2023-05-18T02:52:34.103Z,1.70
2023-05-18T02:55:01.152Z,1.67
2023-05-18T02:57:46.953Z,1.67
2023-05-18T03:00:16.888Z,1.90
2023-05-18T03:02:48.280Z,1.80
2023-05-18T03:05:16.654Z,1.63
2023-05-18T03:07:50.618Z,1.57
2023-05-18T03:10:21.687Z,1.50
2023-05-18T03:12:48.231Z,1.63
2023-05-18T03:15:16.541Z,1.70
2023-05-18T03:17:43.685Z,1.70
2023-05-18T03:20:11.672Z,1.70
2023-05-18T03:22:38.215Z,2.00
2023-05-18T03:25:05.177Z,1.98
2023-05-18T03:27:32.094Z,1.80
2023-05-18T03:29:58.739Z,1.85
2023-05-18T03:32:25.516Z,2.07
2023-05-18T03:34:53.076Z,1.70
2023-05-18T03:37:21.386Z,1.80
2023-05-18T03:39:47.930Z,1.70
2023-05-18T03:42:15.687Z,1.50
2023-05-18T03:44:42.322Z,1.73
2023-05-18T03:47:09.293Z,1.90
2023-05-18T03:49:35.839Z,1.50
2023-05-18T03:52:03.829Z,2.07
2023-05-18T03:54:30.480Z,1.92
2023-05-18T03:56:57.038Z,2.10
2023-05-18T03:59:23.589Z,2.00
2023-05-18T04:01:54.186Z,1.98
2023-05-18T04:04:23.517Z,1.90
2023-05-18T04:06:53.383Z,1.95
2023-05-18T04:09:20.794Z,2.05
2023-05-18T04:11:48.292Z,2.10
2023-05-18T04:14:15.202Z,2.07
2023-05-18T04:16:41.926Z,1.90
2023-05-18T04:19:08.857Z,2.08
2023-05-18T04:21:36.271Z,2.28
2023-05-18T04:24:07.003Z,1.98
2023-05-18T04:26:34.675Z,2.15
2023-05-18T04:29:01.227Z,2.33
2023-05-18T04:31:29.427Z,1.90
2023-05-18T04:33:57.746Z,2.43
2023-05-18T04:36:25.747Z,1.80
2023-05-18T04:38:53.230Z,2.10
2023-05-18T04:41:22.801Z,2.10
2023-05-18T04:43:50.989Z,1.70
2023-05-18T04:46:17.909Z,2.00
2023-05-18T04:48:50.111Z,1.73
2023-05-18T04:51:21.948Z,1.90
2023-05-18T04:53:50.185Z,1.83
2023-05-18T04:56:17.555Z,2.00
2023-05-18T04:58:45.991Z,2.10
2023-05-18T05:01:15.308Z,2.10
2023-05-18T05:03:43.065Z,1.55
2023-05-18T05:06:10.758Z,1.90
2023-05-18T05:08:37.939Z,1.55
2023-05-18T05:11:06.051Z,1.98
2023-05-18T05:13:35.319Z,1.98
2023-05-18T05:16:02.735Z,1.83
2023-05-18T05:18:29.518Z,2.10
2023-05-18T05:20:56.197Z,1.85
2023-05-18T05:23:22.795Z,1.80
2023-05-18T05:25:50.011Z,1.90
2023-05-18T05:28:16.623Z,1.60
2023-05-18T05:30:43.376Z,1.70
2023-05-18T05:33:09.987Z,1.80
2023-05-18T05:35:37.533Z,2.15
2023-05-18T05:38:04.431Z,1.80
2023-05-18T05:40:32.465Z,1.77
2023-05-18T05:42:59.407Z,2.15
2023-05-18T05:45:28.530Z,2.10
2023-05-18T05:47:58.450Z,2.10
2023-05-18T05:50:25.127Z,1.90
2023-05-18T05:52:54.338Z,1.70
2023-05-18T05:55:22.888Z,1.80
2023-05-18T05:57:49.625Z,1.88
2023-05-18T06:00:17.114Z,1.98
2023-05-18T06:02:58.740Z,2.05
2023-05-18T06:05:31.932Z,1.85
2023-05-18T06:07:58.937Z,1.55
2023-05-18T06:10:25.585Z,1.63
2023-05-18T06:12:52.824Z,1.95
2023-05-18T06:15:22.096Z,1.92
2023-05-18T06:17:48.880Z,1.80
2023-05-18T06:20:16.170Z,1.80
2023-05-18T06:22:43.730Z,1.65
2023-05-18T06:25:39.385Z,1.90
2023-05-18T06:28:12.656Z,1.65
2023-05-18T06:30:43.317Z,1.90
2023-05-18T06:33:16.942Z,1.40
2023-05-18T06:35:43.580Z,1.40
2023-05-18T06:38:10.198Z,1.60
2023-05-18T06:40:37.066Z,1.60
2023-05-18T06:43:03.996Z,1.60
2023-05-18T06:45:38.243Z,1.45
2023-05-18T06:48:34.141Z,1.23
2023-05-18T06:51:00.739Z,1.33
2023-05-18T06:53:27.814Z,1.67
2023-05-18T06:55:55.665Z,1.63
2023-05-18T06:58:22.779Z,1.38
2023-05-18T07:00:50.475Z,1.80
2023-05-18T07:03:17.181Z,1.50
2023-05-18T07:05:43.861Z,1.73
2023-05-18T07:08:10.762Z,1.48
2023-05-18T07:10:37.412Z,1.40
2023-05-18T07:13:04.054Z,1.58
2023-05-18T07:15:30.758Z,1.55
2023-05-18T07:17:58.608Z,1.58
2023-05-18T07:20:26.590Z,1.60
2023-05-18T07:22:55.264Z,1.63
2023-05-18T07:25:22.310Z,1.58
2023-05-18T07:27:49.116Z,1.45
2023-05-18T07:30:15.648Z,1.17
2023-05-18T07:32:45.464Z,1.23
2023-05-18T07:35:12.362Z,1.05
2023-05-18T07:37:38.970Z,1.33
2023-05-18T07:40:05.896Z,1.90
2023-05-18T07:42:33.955Z,1.10
2023-05-18T07:45:00.729Z,1.52
2023-05-18T07:47:27.322Z,1.33
2023-05-18T07:49:54.002Z,1.23
2023-05-18T07:52:20.643Z,1.50
2023-05-18T07:54:47.390Z,1.17
2023-05-18T07:57:14.372Z,1.30
2023-05-18T07:59:41.361Z,1.40
2023-05-18T08:02:08.041Z,1.40
2023-05-18T08:04:34.612Z,1.35
2023-05-18T08:07:02.093Z,1.35
2023-05-18T08:09:28.804Z,1.50
2023-05-18T08:11:55.458Z,1.30
2023-05-18T08:14:22.084Z,1.40
2023-05-18T08:16:48.756Z,1.35
2023-05-18T08:19:15.510Z,1.33
2023-05-18T08:21:44.365Z,1.52
2023-05-18T08:24:11.038Z,1.58
2023-05-18T08:26:38.408Z,1.08
2023-05-18T08:29:09.741Z,1.60
2023-05-18T08:31:37.554Z,1.25
2023-05-18T08:34:04.932Z,1.20
2023-05-18T08:36:32.048Z,0.90
2023-05-18T08:38:58.585Z,1.00
2023-05-18T08:41:28.464Z,1.13
2023-05-18T08:44:11.863Z,0.95
2023-05-18T08:46:42.765Z,1.10
2023-05-18T08:49:10.016Z,1.50
2023-05-18T08:51:37.482Z,1.55
2023-05-18T08:54:06.104Z,1.00
2023-05-18T08:56:36.135Z,0.98
2023-05-18T08:59:04.868Z,1.10
2023-05-18T09:01:33.003Z,1.15
2023-05-18T09:04:00.908Z,0.98
2023-05-18T09:06:29.857Z,1.40
2023-05-18T09:09:05.286Z,1.02
2023-05-18T09:11:35.782Z,1.30
2023-05-18T09:14:02.599Z,1.40
2023-05-18T09:16:29.514Z,1.42
2023-05-18T09:18:56.187Z,1.38
2023-05-18T09:21:23.022Z,1.33
2023-05-18T09:23:52.129Z,1.30
2023-05-18T09:26:43.491Z,0.98
2023-05-18T09:29:17.965Z,1.23
2023-05-18T09:31:49.009Z,1.27
2023-05-18T09:34:18.426Z,1.20
2023-05-18T09:36:53.116Z,1.23
2023-05-18T09:39:20.027Z,1.00
2023-05-18T09:41:46.647Z,1.17
2023-05-18T09:44:13.208Z,1.00
2023-05-18T09:46:41.472Z,1.30
2023-05-18T09:49:08.234Z,1.20
2023-05-18T09:51:35.772Z,1.30
2023-05-18T09:54:05.105Z,1.10
2023-05-18T09:56:34.949Z,0.88
2023-05-18T09:59:14.410Z,1.08
2023-05-18T10:02:32.967Z,1.30
2023-05-18T10:09:00.690Z,1.10
2023-05-18T10:15:27.796Z,1.00
2023-05-18T10:28:38.114Z,0.98
2023-05-18T10:38:43.759Z,1.00
2023-05-18T10:45:27.815Z,1.25
2023-05-18T10:51:30.312Z,1.20
2023-05-18T10:54:08.782Z,1.45
2023-05-18T10:56:37.629Z,1.13
2023-05-18T10:59:04.796Z,1.30
2023-05-18T11:01:31.790Z,1.38
2023-05-18T11:04:01.289Z,1.30
2023-05-18T11:06:27.989Z,1.70
2023-05-18T11:08:54.637Z,1.50
2023-05-18T11:11:26.185Z,1.40
2023-05-18T11:13:54.544Z,0.85
2023-05-18T11:16:34.796Z,1.23
2023-05-18T11:19:19.148Z,1.23
2023-05-18T11:21:46.847Z,1.17
2023-05-18T11:24:36.188Z,0.90
2023-05-18T11:27:08.939Z,1.00
2023-05-18T11:29:46.656Z,1.23
2023-05-18T11:32:30.447Z,1.13
2023-05-18T11:34:58.191Z,1.27
2023-05-18T11:37:40.060Z,1.05
2023-05-18T11:40:18.284Z,1.40
2023-05-18T11:43:07.148Z,1.00
2023-05-18T11:45:34.246Z,1.15
2023-05-18T11:48:02.650Z,1.00
2023-05-18T11:50:38.163Z,1.30
2023-05-18T11:53:04.669Z,1.10
2023-05-18T11:55:40.186Z,1.05
2023-05-18T11:58:14.050Z,1.23
2023-05-18T12:03:34.941Z,1.20
2023-05-18T12:06:12.164Z,0.98
2023-05-18T12:09:03.663Z,1.10
2023-05-18T12:11:38.350Z,1.05
2023-05-18T12:14:08.315Z,1.05
2023-05-18T12:16:42.352Z,1.02
2023-05-18T12:19:18.725Z,1.00
2023-05-18T12:21:47.176Z,1.58
2023-05-18T12:24:15.505Z,1.60
2023-05-18T12:26:47.034Z,1.30
2023-05-18T12:29:20.404Z,1.27
2023-05-18T12:31:49.550Z,0.98
2023-05-18T12:34:16.638Z,1.00
2023-05-18T12:36:52.281Z,1.00
2023-05-18T12:39:27.104Z,1.17
2023-05-18T12:42:37.014Z,1.30
2023-05-18T12:45:35.007Z,1.10
2023-05-18T12:48:11.800Z,0.80
2023-05-18T12:50:57.739Z,0.90
2023-05-18T12:53:26.943Z,1.10
2023-05-18T12:56:14.445Z,1.00
2023-05-18T12:59:13.872Z,1.10
2023-05-18T13:01:47.251Z,0.90
2023-05-18T13:06:25.236Z,1.00
2023-05-18T13:07:52.120Z,0.98
2023-05-18T13:11:20.461Z,1.00
2023-05-18T13:14:23.215Z,0.75
2023-05-18T13:17:31.990Z,1.20
2023-05-18T13:20:01.364Z,0.95
2023-05-18T13:25:40.367Z,1.10
2023-05-18T13:31:37.288Z,0.80
2023-05-18T13:34:09.231Z,0.68
2023-05-18T13:36:43.256Z,0.90
2023-05-18T13:39:22.900Z,1.00
2023-05-18T13:41:50.078Z,0.90
2023-05-18T13:44:18.252Z,1.30
2023-05-18T13:46:48.209Z,1.10
2023-05-18T13:49:21.076Z,0.90
2023-05-18T13:51:49.215Z,1.05
2023-05-18T13:57:17.043Z,0.90
2023-05-18T13:59:43.869Z,1.00
2023-05-18T14:02:36.595Z,1.25
2023-05-18T14:05:40.162Z,1.25
2023-05-18T14:08:25.411Z,1.10
2023-05-18T14:11:19.648Z,1.13
2023-05-18T14:14:12.797Z,1.08
2023-05-18T14:20:16.072Z,1.15
2023-05-18T14:23:13.847Z,1.00
2023-05-18T14:26:06.121Z,1.17
2023-05-18T14:29:07.208Z,1.00
2023-05-18T14:34:42.225Z,0.82
2023-05-18T14:37:09.973Z,1.10
2023-05-18T14:42:45.112Z,1.25
2023-05-18T14:45:22.692Z,0.80
2023-05-18T14:48:08.403Z,0.82
2023-05-18T14:50:39.001Z,1.02
2023-05-18T14:53:08.355Z,1.20
2023-05-18T14:55:59.313Z,1.08
2023-05-18T15:01:50.869Z,1.20
2023-05-18T15:04:29.150Z,1.02
2023-05-18T15:07:05.886Z,0.88
2023-05-18T15:12:41.413Z,1.20
2023-05-18T15:15:34.892Z,0.98
2023-05-18T15:18:13.227Z,1.00
2023-05-18T15:21:03.135Z,0.80
2023-05-18T15:23:44.925Z,1.00
2023-05-18T15:26:15.927Z,0.82
2023-05-18T15:28:59.005Z,1.20
2023-05-18T15:34:21.959Z,0.80
2023-05-18T15:36:48.751Z,1.00
2023-05-18T15:39:15.574Z,0.93
2023-05-18T15:42:12.085Z,0.85
2023-05-18T15:44:56.300Z,0.80
2023-05-18T15:47:28.307Z,0.82
2023-05-18T15:50:00.466Z,0.70
2023-05-18T15:58:16.845Z,1.00
2023-05-18T16:01:06.724Z,1.05
2023-05-18T16:03:46.639Z,0.90
2023-05-18T16:06:29.022Z,0.85
2023-05-18T16:09:29.394Z,0.80
2023-05-18T16:11:57.097Z,1.02
2023-05-18T16:14:43.523Z,0.85
2023-05-18T16:17:41.981Z,0.82
2023-05-18T16:20:20.625Z,1.00
2023-05-18T16:23:02.119Z,0.88
2023-05-18T16:34:58.204Z,0.85
2023-05-18T16:37:25.267Z,1.08
2023-05-18T16:39:53.543Z,0.70
2023-05-18T16:42:25.425Z,0.95
2023-05-18T16:44:53.731Z,0.98
2023-05-18T16:47:20.940Z,0.60
2023-05-18T16:52:36.061Z,0.90
2023-05-18T16:55:03.266Z,0.80
2023-05-18T17:00:42.889Z,0.90
2023-05-18T17:06:23.430Z,0.80
2023-05-18T17:08:58.662Z,0.98
2023-05-18T17:11:33.156Z,0.70
2023-05-18T17:17:41.308Z,0.80
2023-05-18T17:20:09.559Z,0.73
2023-05-18T17:22:37.536Z,0.70
2023-05-18T17:25:06.637Z,0.80
2023-05-18T17:27:33.304Z,0.80
2023-05-18T17:29:59.875Z,1.05
2023-05-18T17:32:26.464Z,0.60
2023-05-18T17:34:53.049Z,0.80
2023-05-18T17:37:19.652Z,0.80
2023-05-18T17:39:46.223Z,0.68
2023-05-18T17:42:12.730Z,0.98
2023-05-18T17:44:39.312Z,0.80
2023-05-18T17:47:06.498Z,0.73
2023-05-18T17:49:33.222Z,0.75
2023-05-18T17:51:59.827Z,0.93
2023-05-18T17:54:26.472Z,0.68
2023-05-18T17:56:53.081Z,0.60
2023-05-18T17:59:19.697Z,0.93
2023-05-18T18:01:46.424Z,0.90
2023-05-18T18:04:13.153Z,1.10
2023-05-18T18:06:39.843Z,1.08
2023-05-18T18:09:06.721Z,1.10
2023-05-18T18:11:33.318Z,1.00
2023-05-18T18:14:00.156Z,0.90
2023-05-18T18:16:26.981Z,0.90
2023-05-18T18:18:53.810Z,1.00
2023-05-18T18:21:20.399Z,1.05
2023-05-18T18:23:46.912Z,1.10
2023-05-18T18:26:13.451Z,0.90
2023-05-18T18:28:40.253Z,0.95
2023-05-18T18:31:07.029Z,1.02
2023-05-18T18:33:33.667Z,1.20
2023-05-18T18:36:00.251Z,1.10
2023-05-18T18:38:29.653Z,0.98
2023-05-18T18:41:01.223Z,1.00
2023-05-18T18:43:28.195Z,0.90
2023-05-18T18:45:55.861Z,0.90
2023-05-18T18:48:23.003Z,0.95
2023-05-18T18:50:49.569Z,1.05
2023-05-18T18:53:16.399Z,1.00
2023-05-18T18:55:43.108Z,1.02
2023-05-18T18:58:09.626Z,1.10
2023-05-18T19:00:36.152Z,0.75
2023-05-18T19:03:02.876Z,1.33
2023-05-18T19:05:30.953Z,0.95
2023-05-18T19:07:57.718Z,0.88
2023-05-18T19:10:24.452Z,1.13
2023-05-18T19:12:51.050Z,1.00
2023-05-18T19:15:17.873Z,1.10
2023-05-18T19:17:52.381Z,1.08
2023-05-18T19:20:19.389Z,1.20
2023-05-18T19:22:45.956Z,1.20
2023-05-18T19:25:12.529Z,1.08
2023-05-18T19:27:39.138Z,0.95
2023-05-18T19:30:07.250Z,1.15
2023-05-18T19:32:33.885Z,1.02
2023-05-18T19:35:00.598Z,1.10
2023-05-18T19:37:27.362Z,0.98
2023-05-18T19:39:53.958Z,1.00
2023-05-18T19:42:20.551Z,1.10
2023-05-18T19:44:47.696Z,0.93
2023-05-18T19:47:14.321Z,1.73
2023-05-18T19:49:40.821Z,1.20
2023-05-18T19:52:08.088Z,1.58
2023-05-18T19:54:35.229Z,1.10
2023-05-18T19:57:02.278Z,1.33
2023-05-18T19:59:29.546Z,1.27
2023-05-18T20:01:57.848Z,1.02
2023-05-18T20:04:24.940Z,1.10
2023-05-18T20:06:52.006Z,1.40
2023-05-18T20:09:18.634Z,1.30
2023-05-18T20:11:45.620Z,1.20
2023-05-18T20:14:12.117Z,1.63
2023-05-18T20:16:40.611Z,1.27
2023-05-18T20:19:07.273Z,1.52
2023-05-18T20:21:34.374Z,0.90
2023-05-18T20:24:09.629Z,1.40
2023-05-18T20:26:36.245Z,1.63
2023-05-18T20:29:02.889Z,1.40
2023-05-18T20:31:29.548Z,1.27
2023-05-18T20:33:57.849Z,1.50
2023-05-18T20:36:29.177Z,1.38
2023-05-18T20:38:55.733Z,1.33
2023-05-18T20:41:23.227Z,1.30
2023-05-18T20:43:51.236Z,1.02
2023-05-18T20:46:20.575Z,1.20
2023-05-18T20:48:47.398Z,1.08
2023-05-18T20:51:17.369Z,1.45
2023-05-18T20:53:44.883Z,1.10
2023-05-18T20:56:12.416Z,1.40
2023-05-18T20:58:42.506Z,1.30
2023-05-18T21:01:10.835Z,1.45
2023-05-18T21:03:38.488Z,1.15
2023-05-18T21:06:05.321Z,1.23
2023-05-18T21:08:32.513Z,1.38
2023-05-18T21:10:59.112Z,1.20
2023-05-18T21:13:25.624Z,1.15
2023-05-18T21:15:52.176Z,1.30
2023-05-18T21:18:18.745Z,1.40
2023-05-18T21:20:45.672Z,1.50
2023-05-18T21:23:12.175Z,1.33
2023-05-18T21:25:39.084Z,1.08
2023-05-18T21:28:05.614Z,1.23
2023-05-18T21:30:32.472Z,1.23
2023-05-18T21:32:59.384Z,1.10
2023-05-18T21:35:26.521Z,1.17
2023-05-18T21:37:53.359Z,1.40
2023-05-18T21:40:19.913Z,1.00
2023-05-18T21:42:47.185Z,1.45
2023-05-18T21:45:13.969Z,1.25
2023-05-18T21:47:40.662Z,1.27
2023-05-18T21:50:07.548Z,1.40
2023-05-18T21:52:34.080Z,1.40
2023-05-18T21:55:00.626Z,1.45
2023-05-18T21:57:27.169Z,1.40
2023-05-18T21:59:53.735Z,1.10
2023-05-18T22:02:20.328Z,1.17
2023-05-18T22:04:46.844Z,1.30
2023-05-18T22:07:14.408Z,1.40
2023-05-18T22:09:40.970Z,1.38
2023-05-18T22:12:07.513Z,1.73
2023-05-18T22:14:34.105Z,1.30
2023-05-18T22:17:02.201Z,1.27
2023-05-18T22:19:28.831Z,1.50
2023-05-18T22:21:55.670Z,1.10
2023-05-18T22:24:22.190Z,1.33
2023-05-18T22:26:48.712Z,1.55
2023-05-18T22:29:15.279Z,1.30
2023-05-18T22:31:41.989Z,1.50
2023-05-18T22:34:08.700Z,1.50
2023-05-18T22:36:35.313Z,1.50
2023-05-18T22:39:02.834Z,1.42
2023-05-18T22:41:29.327Z,1.27
2023-05-18T22:43:55.802Z,1.40
2023-05-18T22:46:22.431Z,1.35
2023-05-18T22:48:48.946Z,1.23
2023-05-18T22:51:15.737Z,1.42
2023-05-18T22:53:42.319Z,1.30
2023-05-18T22:56:08.867Z,1.40
2023-05-18T22:58:35.404Z,1.42
2023-05-18T23:01:01.986Z,1.52
2023-05-18T23:03:28.497Z,1.35
2023-05-18T23:05:54.994Z,1.55
2023-05-18T23:08:21.524Z,1.40
2023-05-18T23:10:48.052Z,1.55
2023-05-18T23:13:16.131Z,1.48
2023-05-18T23:15:42.842Z,1.40
2023-05-18T23:18:10.184Z,1.20
2023-05-18T23:20:38.594Z,1.48
2023-05-18T23:23:05.330Z,1.42
2023-05-18T23:25:31.872Z,1.40
2023-05-18T23:27:58.382Z,1.50
2023-05-18T23:30:24.946Z,1.33
2023-05-18T23:32:52.990Z,1.40
2023-05-18T23:35:19.840Z,1.42
2023-05-18T23:37:48.196Z,1.90
2023-05-18T23:40:16.567Z,1.33
2023-05-18T23:42:43.280Z,1.38
2023-05-18T23:45:10.176Z,1.40
2023-05-18T23:47:36.966Z,1.80
2023-05-18T23:50:03.757Z,1.50
2023-05-18T23:52:32.380Z,1.75
2023-05-18T23:54:59.429Z,1.35
2023-05-18T23:57:26.025Z,1.80
2023-05-18T23:59:53.343Z,1.70
